Time;durP1;ratioP1;P1;durP2;ratioP2;P2;SDS_P1;SDS_P2;PMS_P1;PMS_P2;Temp;Humidity;BMP_temperature;BMP_pressure;BME280_temperature;BME280_humidity;BME280_pressure;Samples;Min_cycle;Max_cycle;Signal;HPM_P1;HPM_P2
2022/02/10 00:16:05;;;;;;;24.33;13.80;;;;;;;2.94;93.17;101326.86;1376785;94;22881;-79
2022/02/10 00:18:31;;;;;;;20.93;14.20;;;;;;;2.93;93.31;101326.45;1381960;94;22708;-79
2022/02/10 00:20:58;;;;;;;16.90;13.20;;;;;;;2.91;93.39;101328.33;1376713;94;21753;-79
2022/02/10 00:34:10;;;;;;;20.27;13.60;;;;;;;2.86;94.62;101325.09;1381216;90;21738;-78
2022/02/10 00:41:48;;;;;;;22.90;13.53;;;;;;;2.77;94.07;101342.54;1381401;91;22638;-80
2022/02/10 00:44:15;;;;;;;25.50;14.83;;;;;;;2.78;93.45;101342.91;1403403;92;21714;-79
2022/02/10 00:46:43;;;;;;;23.27;15.20;;;;;;;2.77;93.61;101343.38;1409180;93;21746;-78
2022/02/10 00:49:10;;;;;;;25.40;17.20;;;;;;;2.78;92.92;101340.30;1407690;93;21883;-78
2022/02/10 00:51:37;;;;;;;25.37;17.43;;;;;;;2.78;92.72;101333.77;1409307;92;22562;-78
2022/02/10 00:54:04;;;;;;;25.77;16.17;;;;;;;2.81;92.51;101345.37;1390316;94;22521;-79
2022/02/10 00:56:32;;;;;;;23.93;15.37;;;;;;;2.78;92.28;101341.14;1412494;92;21693;-80
2022/02/10 00:59:11;;;;;;;27.83;17.50;;;;;;;2.78;91.98;101346.84;1398359;93;21795;-79
2022/02/10 01:07:14;;;;;;;31.30;15.87;;;;;;;2.81;91.09;101358.45;1402635;92;22773;-78
2022/02/10 01:12:28;;;;;;;22.40;14.30;;;;;;;2.76;90.22;101351.28;1386925;94;21681;-79
2022/02/10 01:30:32;;;;;;;20.70;14.03;;;;;;;2.33;90.43;101366.40;1404513;92;22574;-79
2022/02/10 01:33:03;;;;;;;17.13;12.43;;;;;;;2.29;90.37;101374.00;1405279;92;21793;-79
2022/02/10 01:35:29;;;;;;;19.03;13.73;;;;;;;2.28;90.02;101371.02;1404390;92;21812;-78
2022/02/10 01:37:56;;;;;;;20.97;12.87;;;;;;;2.27;89.90;101375.37;1414666;92;21567;-79
2022/02/10 01:40:34;;;;;;;14.93;12.27;;;;;;;2.28;89.94;101374.94;1404304;92;21506;-79
2022/02/10 02:04:47;;;;;;;23.10;13.40;;;;;;;2.53;90.96;101371.53;1399578;93;22707;-79
2022/02/10 02:07:15;;;;;;;20.53;13.67;;;;;;;2.59;90.68;101373.88;1389760;94;21664;-79
2022/02/10 02:09:42;;;;;;;19.00;12.40;;;;;;;2.63;90.88;101373.27;1394926;93;21867;-79
2022/02/10 02:12:09;;;;;;;17.47;12.07;;;;;;;2.68;90.65;101375.20;1390247;93;21814;-78
2022/02/10 02:14:37;;;;;;;19.33;13.37;;;;;;;2.73;90.68;101376.27;1387687;93;21674;-79
2022/02/10 02:17:06;;;;;;;14.83;10.97;;;;;;;2.76;90.30;101370.89;1395295;94;21687;-79
2022/02/10 02:19:34;;;;;;;16.57;12.90;;;;;;;2.80;89.90;101373.77;1404147;92;22923;-79
2022/02/10 02:22:09;;;;;;;25.13;15.43;;;;;;;2.94;89.74;101380.47;1412327;93;21792;-81
2022/02/10 02:24:36;;;;;;;19.37;14.67;;;;;;;2.94;89.74;101380.47;1404154;93;21860;-79
2022/02/10 02:27:06;;;;;;;18.07;13.13;;;;;;;3.02;89.99;101382.25;1402078;92;21687;-78
2022/02/10 02:29:48;;;;;;;18.87;12.27;;;;;;;3.06;89.35;101382.94;1400530;92;21682;-79
2022/02/10 02:32:23;;;;;;;20.67;14.60;;;;;;;3.06;89.35;101382.94;1383639;94;22731;-79
2022/02/10 03:07:14;;;;;;;21.60;15.93;;;;;;;3.53;87.58;101379.69;1414563;93;22027;-80
2022/02/10 03:09:42;;;;;;;22.70;14.83;;;;;;;3.50;87.75;101374.61;1392838;93;22103;-81
2022/02/10 03:12:08;;;;;;;20.80;14.83;;;;;;;3.50;87.75;101374.61;1403197;91;21890;-81
2022/02/10 03:14:44;;;;;;;23.00;15.47;;;;;;;3.55;87.55;101389.16;1414500;93;21809;-81
2022/02/10 04:01:11;;;;;;;28.40;16.67;;;;;;;3.91;86.68;101371.12;1405835;93;22235;-79
2022/02/10 04:03:47;;;;;;;24.50;16.83;;;;;;;3.93;86.42;101362.73;1398382;93;22059;-80
2022/02/10 04:06:17;;;;;;;37.50;21.53;;;;;;;3.93;86.42;101362.73;1393757;93;22038;-80
2022/02/10 04:16:36;;;;;;;28.07;18.07;;;;;;;3.90;86.03;101358.97;1406649;92;22168;-80
2022/02/10 04:22:03;;;;;;;25.43;17.17;;;;;;;3.80;85.82;101364.33;1404075;93;22121;-80
2022/02/10 04:27:09;;;;;;;23.40;15.17;;;;;;;3.67;86.31;101356.72;1386617;93;22052;-80
2022/02/10 04:32:18;;;;;;;21.00;14.80;;;;;;;3.58;86.31;101347.11;1401466;92;22178;-80
2022/02/10 04:53:15;;;;;;;24.00;15.37;;;;;;;3.60;85.96;101355.73;1389019;91;21390;-79
2022/02/10 05:22:43;;;;;;;58.10;38.20;;;;;;;3.40;85.73;101353.31;1397995;93;21928;-80
2022/02/10 05:33:35;;;;;;;30.93;17.43;;;;;;;3.26;85.68;101345.32;1432133;90;22753;-80
2022/02/10 05:36:00;;;;;;;33.50;19.83;;;;;;;3.12;85.65;101340.31;1430920;90;21957;-81
2022/02/10 05:38:32;;;;;;;31.83;19.57;;;;;;;3.09;85.85;101339.16;1433341;89;24048;-80
2022/02/10 05:41:47;;;;;;;36.97;20.43;;;;;;;3.09;85.85;101339.16;1428281;91;21915;-80
2022/02/10 05:43:55;;;;;;;69.50;35.23;;;;;;;2.97;85.41;101335.02;1417374;90;21887;-78
2022/02/10 05:49:40;;;;;;;83.83;45.00;;;;;;;2.90;85.63;101338.37;1425910;91;21841;-78
2022/02/10 05:52:34;;;;;;;72.27;38.53;;;;;;;2.85;85.77;101339.94;1412424;91;23172;-79
2022/02/10 05:54:37;;;;;;;65.33;36.00;;;;;;;2.72;86.10;101340.14;1436736;91;21873;-78
2022/02/10 05:56:55;;;;;;;45.53;25.20;;;;;;;2.72;86.10;101340.14;1417884;92;21899;-79
2022/02/10 05:59:42;;;;;;;36.77;21.80;;;;;;;2.75;85.94;101356.14;1407844;92;21938;-79
2022/02/10 06:57:20;;;;;;;25.60;16.83;;;;;;;3.01;86.37;101379.70;1434158;91;21760;-77
2022/02/10 07:12:14;;;;;;;36.47;24.20;;;;;;;3.53;85.46;101359.59;1432974;91;22995;-78
2022/02/10 07:14:56;;;;;;;29.73;20.37;;;;;;;3.70;85.13;101370.95;1428717;89;21961;-78
2022/02/10 07:42:42;;;;;;;32.17;21.47;;;;;;;3.72;85.01;101368.64;1422433;91;22264;-77
2022/02/10 07:44:21;;;;;;;26.20;18.77;;;;;;;3.81;84.98;101371.24;1427614;90;22338;-76
2022/02/10 07:52:52;;;;;;;31.50;20.20;;;;;;;3.42;85.28;101355.83;1421040;91;22264;-77
2022/02/10 07:57:49;;;;;;;28.87;18.93;;;;;;;2.96;87.77;101346.38;1419632;91;23066;-77
2022/02/10 08:55:10;;;;;;;32.27;21.50;;;;;;;3.30;87.50;101318.06;1379748;93;22373;-80
2022/02/10 08:57:43;;;;;;;33.23;22.37;;;;;;;3.30;87.50;101318.06;1374355;94;22570;-80
2022/02/10 09:13:20;;;;;;;33.97;21.20;;;;;;;3.25;87.63;101335.33;1408895;93;22100;-80
2022/02/10 09:16:08;;;;;;;33.60;21.57;;;;;;;3.33;87.82;101356.69;1408433;93;22373;-78
2022/02/10 09:48:03;;;;;;;32.57;23.60;;;;;;;3.63;87.37;101346.04;1407681;92;23225;-80
2022/02/10 09:55:51;;;;;;;36.97;25.07;;;;;;;3.74;87.24;101328.84;1420576;92;22276;-79
2022/02/10 10:01:00;;;;;;;35.87;24.47;;;;;;;3.81;86.75;101322.80;1401502;92;23153;-79
2022/02/10 10:03:16;;;;;;;38.73;26.33;;;;;;;3.86;86.63;101323.41;1366305;93;22171;-79
2022/02/10 10:14:17;;;;;;;33.67;24.40;;;;;;;3.94;86.54;101316.42;1382190;94;22325;-81
2022/02/10 10:17:01;;;;;;;39.27;26.23;;;;;;;3.93;86.34;101307.72;1390848;91;23050;-80
2022/02/10 10:23:07;;;;;;;41.60;26.63;;;;;;;3.94;86.50;101304.20;1389833;92;23144;-79
2022/02/10 10:51:10;;;;;;;37.67;25.77;;;;;;;4.50;84.92;101271.34;1466016;93;22090;-78
2022/02/10 10:53:43;;;;;;;40.77;26.60;;;;;;;4.55;84.58;101263.70;1403349;93;21457;-79
2022/02/10 10:56:39;;;;;;;39.90;28.17;;;;;;;4.63;84.68;101268.88;1464365;92;22673;-79
2022/02/10 11:07:40;;;;;;;41.28;27.10;;;;;;;4.94;82.54;101262.66;1408604;92;23519;-80
2022/02/10 11:38:34;;;;;;;43.80;27.90;;;;;;;5.50;84.40;101197.16;1388303;94;22321;-79
2022/02/10 11:41:18;;;;;;;38.83;27.93;;;;;;;5.61;82.48;101195.16;1384947;93;21399;-79
2022/02/10 12:30:29;;;;;;;31.77;24.97;;;;;;;9.33;74.06;101116.38;1428580;91;21562;-80
2022/02/10 13:48:59;;;;;;;27.13;22.98;;;;;;;12.60;56.49;101072.91;1429317;91;21450;-79
2022/02/10 14:13:26;;;;;;;34.97;26.93;;;;;;;10.55;58.58;101067.54;1408528;92;22280;-79
2022/02/10 14:25:38;;;;;;;32.47;23.90;;;;;;;9.25;62.73;101059.36;1363601;92;21458;-79
2022/02/10 14:25:58;;;;;;;30.53;23.23;;;;;;;9.07;62.62;101051.61;1473566;93;21290;-79
2022/02/10 14:28:22;;;;;;;27.83;21.40;;;;;;;8.79;63.90;101048.50;1453831;93;21484;-79
2022/02/10 14:30:50;;;;;;;28.13;21.17;;;;;;;8.48;65.08;101060.13;1305580;95;21284;-79
2022/02/10 14:33:25;;;;;;;31.37;22.77;;;;;;;8.21;66.27;101047.72;1375172;93;21399;-79
2022/02/10 14:35:57;;;;;;;34.13;23.53;;;;;;;8.01;66.40;101040.84;1437316;94;22354;-80
2022/02/10 15:17:09;;;;;;;35.33;25.30;;;;;;;6.40;73.03;101003.81;1424895;95;21208;-81
2022/02/10 15:28:51;;;;;;;41.80;25.67;;;;;;;6.20;73.60;100996.47;1444034;95;21443;-80
2022/02/10 15:31:33;;;;;;;38.70;25.67;;;;;;;5.76;75.44;100993.26;1419821;95;21278;-82
2022/02/10 15:49:07;;;;;;;39.73;26.50;;;;;;;4.72;82.48;100992.98;1391396;93;21518;-80
2022/02/10 16:18:16;;;;;;;48.17;30.37;;;;;;;3.13;90.39;100982.34;1435449;95;22023;-78
2022/02/10 16:20:49;;;;;;;53.70;32.97;;;;;;;2.95;92.73;100984.69;1389697;96;22204;-79
2022/02/10 16:23:17;;;;;;;53.03;32.73;;;;;;;2.83;91.76;100980.98;1296144;95;22046;-80
2022/02/10 16:25:48;;;;;;;59.03;35.40;;;;;;;2.83;91.76;100980.98;1413463;95;21971;-79
2022/02/10 16:28:25;;;;;;;43.47;28.20;;;;;;;2.81;91.85;100984.12;1311308;95;22737;-80
2022/02/10 16:30:41;;;;;;;;;;;;;;;2.53;93.75;100983.47;1436311;95;22707;-79
2022/02/10 16:33:09;;;;;;;51.27;30.30;;;;;;;2.31;94.29;100985.09;1389028;92;20246;-80
2022/02/10 16:35:36;;;;;;;49.93;31.77;;;;;;;2.31;94.29;100985.09;1332347;93;21856;-79
2022/02/10 16:38:03;;;;;;;55.00;33.83;;;;;;;2.17;95.01;100985.81;1382560;92;21952;-79
2022/02/10 16:40:33;;;;;;;37.03;26.10;;;;;;;2.17;95.01;100985.81;1336794;93;22714;-79
2022/02/10 16:43:00;;;;;;;58.93;36.00;;;;;;;2.04;97.38;100983.45;1334262;92;21696;-79
2022/02/10 16:45:28;;;;;;;48.90;30.33;;;;;;;2.07;96.84;100985.06;1368015;93;21713;-79
2022/02/10 16:47:56;;;;;;;42.57;27.27;;;;;;;2.10;96.48;100992.30;1333206;93;21709;-79
2022/02/10 16:50:23;;;;;;;49.83;28.63;;;;;;;1.97;98.23;100988.16;1412263;93;21744;-80
2022/02/10 16:52:59;;;;;;;42.17;27.33;;;;;;;1.93;99.05;100991.02;1319727;94;21672;-79
2022/02/10 16:55:36;;;;;;;47.23;29.90;;;;;;;1.87;98.98;100990.00;1478691;93;22559;-79
2022/02/10 17:06:02;;;;;;;52.60;31.80;;;;;;;1.66;100.00;100997.16;1404806;91;21894;-81
2022/02/10 17:27:19;;;;;;;50.50;33.33;;;;;;;1.62;100.00;101009.52;1407731;92;21902;-81
2022/02/10 17:29:44;;;;;;;59.07;34.27;;;;;;;1.65;100.00;101004.14;1410306;93;22309;-81
2022/02/10 17:32:13;;;;;;;65.20;40.90;;;;;;;1.73;100.00;101000.70;1409823;90;22212;-81
2022/02/10 17:53:25;;;;;;;43.03;28.50;;;;;;;2.05;100.00;101007.35;1411177;92;21733;-81
2022/02/10 17:55:54;;;;;;;40.50;28.00;;;;;;;2.01;100.00;101005.80;1407037;91;21889;-81
2022/02/10 17:58:23;;;;;;;45.45;28.70;;;;;;;1.99;100.00;101003.75;1399014;92;21796;-82
2022/02/10 18:00:51;;;;;;;45.77;29.87;;;;;;;1.97;100.00;101001.67;1413571;91;21561;-82
2022/02/10 18:03:20;;;;;;;42.30;28.47;;;;;;;1.98;100.00;100998.12;1334972;93;22453;-82
2022/02/10 18:08:36;;;;;;;54.20;31.93;;;;;;;2.15;100.00;100988.96;1513827;91;21685;-82
2022/02/10 18:16:39;;;;;;;51.00;32.43;;;;;;;2.39;99.18;100990.77;1495437;91;21597;-83
2022/02/10 18:19:20;;;;;;;48.07;31.80;;;;;;;2.42;98.92;100991.91;1497529;91;21662;-81
2022/02/10 18:24:40;;;;;;;42.63;27.30;;;;;;;2.47;98.10;100977.27;1360969;91;21876;-82
2022/02/10 19:10:15;;;;;;;57.70;35.37;;;;;;;2.56;92.10;100927.59;1407010;92;22922;-80
2022/02/10 19:12:45;;;;;;;51.55;33.78;;;;;;;2.53;91.86;100922.06;1402007;92;21839;-81
2022/02/10 19:15:32;;;;;;;45.90;29.93;;;;;;;2.59;91.85;100932.21;1385909;92;22436;-82
2022/02/10 19:17:53;;;;;;;44.60;28.03;;;;;;;2.58;92.14;100921.36;1403779;92;21841;-81
2022/02/10 19:20:21;;;;;;;39.77;27.70;;;;;;;2.59;92.11;100923.06;1370990;93;21983;-80
2022/02/10 19:22:50;;;;;;;65.63;44.37;;;;;;;2.50;91.90;100923.54;1403825;92;21863;-80
2022/02/10 19:25:19;;;;;;;40.73;28.73;;;;;;;2.48;91.91;100906.66;1402803;92;22238;-82
2022/02/10 19:27:53;;;;;;;41.80;29.33;;;;;;;2.48;91.75;100909.73;1404899;92;21663;-83
2022/02/10 19:30:24;;;;;;;44.10;30.30;;;;;;;2.39;91.55;100898.49;1381236;93;22023;-82
2022/02/10 19:32:58;;;;;;;;;;;;;;;2.41;91.91;100902.68;1409598;92;22764;-81
2022/02/10 19:35:30;;;;;;;45.17;28.63;;;;;;;2.32;91.86;100901.05;1406666;93;20325;-81
2022/02/10 19:38:01;;;;;;;57.73;34.40;;;;;;;2.23;93.07;100882.33;1483740;93;21906;-82
2022/02/10 19:40:34;;;;;;;55.57;34.00;;;;;;;2.23;92.60;100890.63;1474534;89;21936;-82
2022/02/10 19:43:01;;;;;;;54.23;32.97;;;;;;;2.19;92.87;100884.73;1495112;92;22418;-82
2022/02/10 19:45:29;;;;;;;47.17;30.40;;;;;;;2.20;92.68;100880.35;1434912;92;21731;-82
2022/02/10 19:47:56;;;;;;;50.23;33.20;;;;;;;2.15;92.97;100872.75;1345782;92;21732;-80
2022/02/10 19:50:29;;;;;;;50.77;33.43;;;;;;;2.15;92.97;100872.75;1478214;92;21658;-80
2022/02/10 19:53:04;;;;;;;51.73;35.50;;;;;;;2.18;93.15;100867.36;1457728;92;21744;-80
2022/02/10 19:55:27;;;;;;;62.77;39.23;;;;;;;2.24;93.03;100872.28;1342833;92;21851;-81
2022/02/10 19:58:04;;;;;;;66.97;38.47;;;;;;;2.26;93.13;100869.09;1447080;92;21590;-81
2022/02/10 20:00:32;;;;;;;56.40;34.37;;;;;;;2.28;93.26;100879.95;1449104;92;21833;-81
2022/02/10 20:02:56;;;;;;;51.70;32.70;;;;;;;2.23;92.55;100873.19;1411232;92;22611;-81
2022/02/10 20:05:25;;;;;;;45.30;30.87;;;;;;;2.26;92.96;100857.34;1387009;93;22987;-81
2022/02/10 20:07:55;;;;;;;55.67;35.47;;;;;;;2.23;93.07;100864.05;1384716;94;21850;-81
2022/02/10 20:10:29;;;;;;;59.75;38.15;;;;;;;2.25;92.60;100860.89;1405662;93;23902;-80
2022/02/10 20:12:56;;;;;;;57.70;35.43;;;;;;;2.25;92.45;100862.20;1389216;91;21534;-81
2022/02/10 20:15:24;;;;;;;65.00;40.17;;;;;;;2.23;92.00;100867.96;1399478;91;21804;-81
2022/02/10 20:17:55;;;;;;;57.93;36.57;;;;;;;2.22;92.34;100861.06;1397473;92;21647;-82
2022/02/10 20:20:20;;;;;;;66.70;39.37;;;;;;;2.23;92.13;100863.20;1394949;93;21762;-80
2022/02/10 20:22:49;;;;;;;52.73;35.73;;;;;;;2.23;92.13;100863.20;1422188;91;21798;-79
2022/02/10 20:25:17;;;;;;;51.53;34.90;;;;;;;2.24;92.29;100857.91;1445995;93;22064;-80
2022/02/10 20:27:44;;;;;;;56.53;35.67;;;;;;;2.25;91.63;100865.28;1351194;95;21720;-79
2022/02/10 20:30:11;;;;;;;54.93;34.37;;;;;;;2.21;91.31;100865.89;1369534;95;21577;-80
2022/02/10 20:32:38;;;;;;;44.33;30.27;;;;;;;2.16;91.86;100860.09;1355759;95;22573;-80
2022/02/10 20:35:08;;;;;;;42.83;28.63;;;;;;;2.04;92.38;100868.56;1371308;92;21730;-80
2022/02/10 20:37:35;;;;;;;43.47;29.97;;;;;;;1.93;93.35;100873.55;1377141;93;21717;-79
2022/02/10 20:40:05;;;;;;;44.77;30.97;;;;;;;1.86;92.47;100861.26;1388131;93;21859;-81
2022/02/10 20:42:34;;;;;;;40.50;26.67;;;;;;;1.90;92.90;100856.71;1352243;94;21589;-81
2022/02/10 20:45:03;;;;;;;37.83;26.03;;;;;;;1.79;92.80;100851.61;1325780;94;21602;-80
2022/02/10 20:47:30;;;;;;;44.87;31.43;;;;;;;1.71;93.74;100847.25;1388573;94;21644;-80
2022/02/10 20:49:57;;;;;;;43.03;29.77;;;;;;;1.71;92.99;100849.87;1326558;94;21486;-80
2022/02/10 20:52:25;;;;;;;49.87;29.93;;;;;;;1.76;93.10;100843.11;1326603;94;21540;-80
2022/02/10 20:54:52;;;;;;;39.40;27.63;;;;;;;1.79;93.03;100842.95;1326115;93;22735;-81
2022/02/10 20:57:19;;;;;;;35.87;25.60;;;;;;;1.83;93.23;100841.02;1312869;95;21552;-80
2022/02/10 20:59:47;;;;;;;39.93;25.73;;;;;;;1.86;93.15;100848.67;1389827;94;21533;-81
2022/02/10 21:02:18;;;;;;;37.60;26.17;;;;;;;1.80;92.79;100849.38;1389739;93;22624;-81
2022/02/10 21:04:54;;;;;;;41.27;27.33;;;;;;;1.72;92.24;100851.54;1388884;93;22642;-81
2022/02/10 21:07:26;;;;;;;39.60;26.90;;;;;;;1.71;92.57;100839.42;1392279;93;23912;-81
2022/02/10 21:10:00;;;;;;;43.43;29.70;;;;;;;1.74;92.83;100840.56;1394938;93;21661;-80
2022/02/10 21:12:22;;;;;;;38.67;28.07;;;;;;;1.64;93.07;100838.52;1372850;93;23888;-80
2022/02/10 21:14:49;;;;;;;40.57;28.70;;;;;;;1.55;93.04;100843.75;1395148;93;23007;-81
2022/02/10 21:17:23;;;;;;;47.20;30.93;;;;;;;1.45;93.91;100846.47;1391933;93;21695;-81
2022/02/10 21:19:46;;;;;;;45.80;30.50;;;;;;;1.38;94.40;100849.00;1393944;93;21610;-81
2022/02/10 21:22:17;;;;;;;42.30;28.37;;;;;;;1.37;94.41;100849.93;1359174;94;21690;-81
2022/02/10 21:24:49;;;;;;;44.20;29.77;;;;;;;1.41;94.77;100854.05;1395448;93;22463;-81
2022/02/10 21:29:41;;;;;;;51.00;31.53;;;;;;;1.29;95.25;100832.89;1393350;93;21804;-81
2022/02/10 21:32:08;;;;;;;45.20;29.27;;;;;;;1.31;94.95;100825.84;1390425;94;21772;-81
2022/02/10 21:34:49;;;;;;;42.07;29.70;;;;;;;1.28;95.82;100839.51;1393523;94;21767;-81
2022/02/10 21:37:10;;;;;;;42.15;26.90;;;;;;;1.27;96.16;100848.27;1372046;94;21722;-81
2022/02/10 21:39:53;;;;;;;36.47;26.50;;;;;;;1.27;95.86;100846.49;1393306;94;21584;-80
2022/02/10 21:53:16;;;;;;;43.17;29.67;;;;;;;1.19;95.89;100819.95;1395682;93;22059;-81
2022/02/10 22:06:41;;;;;;;39.38;25.52;;;;;;;1.07;96.72;100833.63;1385727;93;21893;-79
2022/02/10 22:11:45;;;;;;;35.70;25.53;;;;;;;0.98;97.21;100840.57;1391165;94;22000;-81
2022/02/10 22:19:35;;;;;;;45.93;31.23;;;;;;;0.81;97.59;100831.01;1389109;94;21683;-80
2022/02/10 22:22:09;;;;;;;38.30;25.80;;;;;;;0.82;97.50;100824.41;1395805;94;21826;-80
2022/02/10 22:24:31;;;;;;;41.50;29.27;;;;;;;0.78;98.06;100830.70;1393943;92;21716;-81
2022/02/10 22:26:58;;;;;;;43.13;29.53;;;;;;;0.79;97.61;100825.86;1391752;94;21711;-81
2022/02/10 22:29:34;;;;;;;45.83;31.30;;;;;;;0.81;97.30;100827.09;1389243;93;23059;-80
2022/02/10 22:34:46;;;;;;;37.53;25.77;;;;;;;0.70;97.87;100838.03;1395028;94;21734;-80
2022/02/10 22:37:18;;;;;;;40.00;26.90;;;;;;;0.59;98.87;100837.25;1355398;93;21781;-79
2022/02/10 22:39:48;;;;;;;38.03;26.13;;;;;;;0.43;99.96;100842.36;1439157;93;21469;-81
2022/02/10 22:42:21;;;;;;;42.57;29.17;;;;;;;0.39;100.00;100842.09;1488558;90;21632;-78
2022/02/10 22:44:45;;;;;;;34.10;23.33;;;;;;;0.44;99.79;100835.38;1448900;92;21650;-78
2022/02/10 22:47:12;;;;;;;35.40;25.13;;;;;;;0.40;99.78;100842.51;1350380;92;21740;-78
2022/02/10 22:49:39;;;;;;;39.73;27.37;;;;;;;0.39;100.00;100846.00;1325852;93;21733;-78
2022/02/10 22:52:13;;;;;;;38.23;26.60;;;;;;;0.40;100.00;100850.31;1375300;92;22429;-78
2022/02/10 22:54:41;;;;;;;37.23;27.00;;;;;;;0.48;99.56;100839.52;1396260;92;21791;-78
2022/02/10 22:57:08;;;;;;;39.90;27.70;;;;;;;0.48;99.17;100838.67;1414537;92;21712;-78
2022/02/10 22:59:35;;;;;;;39.93;27.43;;;;;;;0.55;98.57;100834.88;1398687;91;21625;-78
2022/02/10 23:02:03;;;;;;;41.27;27.40;;;;;;;0.57;98.33;100833.02;1437155;91;21621;-79
2022/02/10 23:04:30;;;;;;;40.33;27.67;;;;;;;0.60;97.82;100834.17;1425914;91;22433;-78
2022/02/10 23:06:59;;;;;;;40.73;26.10;;;;;;;0.63;97.59;100832.72;1430589;91;21518;-78
2022/02/10 23:10:49;;;;;;;39.73;26.53;;;;;;;0.68;97.61;100838.56;1428315;89;22765;-78
2022/02/10 23:12:01;;;;;;;40.57;26.97;;;;;;;0.69;97.04;100837.63;1408491;91;22910;-79
2022/02/10 23:14:28;;;;;;;36.27;25.13;;;;;;;0.73;96.75;100830.53;1434536;90;21746;-79
2022/02/10 23:16:56;;;;;;;46.73;29.87;;;;;;;0.66;96.60;100837.78;1433046;91;21629;-79
2022/02/10 23:19:23;;;;;;;39.33;28.17;;;;;;;0.72;96.25;100829.70;1430744;91;21577;-77
2022/02/10 23:21:50;;;;;;;43.00;27.47;;;;;;;0.78;96.70;100824.65;1433076;91;21620;-77
2022/02/10 23:24:17;;;;;;;39.33;26.17;;;;;;;0.83;96.45;100816.95;1432653;91;22757;-77
2022/02/10 23:26:45;;;;;;;40.80;27.50;;;;;;;0.88;96.38;100823.25;1429909;91;21777;-78
2022/02/10 23:29:12;;;;;;;36.00;24.77;;;;;;;0.84;95.80;100829.09;1435464;90;21719;-77
2022/02/10 23:31:39;;;;;;;37.63;25.27;;;;;;;0.83;95.56;100835.66;1445127;89;21775;-78
2022/02/10 23:34:06;;;;;;;38.43;25.27;;;;;;;0.73;95.38;100847.00;1451021;90;22559;-79
2022/02/10 23:36:50;;;;;;;39.10;27.27;;;;;;;0.63;95.94;100840.54;1443443;89;23156;-79
2022/02/10 23:39:32;;;;;;;45.73;30.07;;;;;;;0.61;96.05;100837.19;1443169;89;21677;-78
2022/02/10 23:44:34;;;;;;;38.17;26.90;;;;;;;0.68;96.34;100826.38;1426294;91;22599;-78
2022/02/10 23:47:02;;;;;;;47.35;27.10;;;;;;;0.75;96.43;100826.94;1384724;93;21511;-78
2022/02/10 23:49:32;;;;;;;41.00;28.02;;;;;;;0.77;95.75;100822.47;1380488;93;21289;-78
2022/02/10 23:52:02;;;;;;;45.43;30.63;;;;;;;0.76;95.22;100827.31;1385040;95;21413;-78
2022/02/10 23:54:33;;;;;;;41.50;26.83;;;;;;;0.81;95.43;100828.40;1380301;93;22664;-77
2022/02/10 23:57:10;;;;;;;40.87;26.27;;;;;;;0.84;95.27;100836.06;1389280;94;22842;-78
2022/02/10 23:59:49;;;;;;;40.67;27.50;;;;;;;0.88;95.19;100831.91;1386514;94;21692;-77
